Kezdőlap
METAR-TAF:

METAR-TAF

Repülőterek :

Pittsburg, Kansas, Amerikai Egyesült Államok

földrajzi szélesség: 37-26-58N, földrajzi hosszúság: 094-43-52W, magasság: 290 m

Jelenlegi meteorológiai megfigyelések

A jelentés 9 perccel ezelõtt készült, 03:55 UTC
Déli szél 5 kt
Hőmérséklet 25°C
Páratartalom 69%
Légköri nyomás 1018 hPa
Látótávolság: 16.1 km
Derült ég

METAR: KPTS 220355Z AUTO 18005KT 10SM CLR 25/19 A3007 RMK AO2 T02500190 PWINO

Idő: 23:04 (04:04 UTC)


TAF: hiányzik

Meteorológiai megfigyelések és előrejelzések több, mint 4000 repülőtéren (METAR és TAF jelentéseket).

A térképen piros és sárga pontok jelzik az elérhető meteorológiai állomásokat.

Mozgassa az egeret a pont fölött, hogy megjelenjen az állomás neve.

Azután kattintson az időjárási megfigyelések és előrejelzések megtekintéséhez.

A térkép megváltoztatása: kattintson a fekete keresztel jelölt zöld gombra ráközelítéshez, a vonallal jelölt zöld gombra távolításhoz, vagy a zöld nyilakra a szomszédos térképek eléréséhez.


METAR-TAF: